sensor_id;sensor_type;location;lat;lon;timestamp;pressure;altitude;pressure_sealevel;temperature;humidity
12146;BME280;6136;47.032;15.398;2023-04-06T00:00:43;97831.66;;;-0.42;71.61
12146;BME280;6136;47.032;15.398;2023-04-06T00:03:11;97818.84;;;-0.56;71.55
12146;BME280;6136;47.032;15.398;2023-04-06T00:05:40;97826.72;;;-0.60;72.34
12146;BME280;6136;47.032;15.398;2023-04-06T00:08:10;97812.09;;;-0.69;72.27
12146;BME280;6136;47.032;15.398;2023-04-06T00:10:39;97826.75;;;-0.62;72.80
12146;BME280;6136;47.032;15.398;2023-04-06T00:13:07;97822.44;;;-0.64;72.14
12146;BME280;6136;47.032;15.398;2023-04-06T00:15:35;97824.25;;;-0.71;72.40
12146;BME280;6136;47.032;15.398;2023-04-06T00:18:04;97820.75;;;-0.67;71.49
12146;BME280;6136;47.032;15.398;2023-04-06T00:20:32;97807.66;;;-0.61;72.66
12146;BME280;6136;47.032;15.398;2023-04-06T00:23:00;97807.69;;;-0.64;72.13
12146;BME280;6136;47.032;15.398;2023-04-06T00:25:30;97801.63;;;-0.64;72.60
12146;BME280;6136;47.032;15.398;2023-04-06T00:27:59;97793.03;;;-0.71;72.68
12146;BME280;6136;47.032;15.398;2023-04-06T00:30:27;97781.00;;;-0.78;72.23
12146;BME280;6136;47.032;15.398;2023-04-06T00:32:56;97793.03;;;-0.71;72.34
12146;BME280;6136;47.032;15.398;2023-04-06T00:35:24;97797.34;;;-0.68;72.08
12146;BME280;6136;47.032;15.398;2023-04-06T00:37:53;97786.16;;;-0.75;72.89
12146;BME280;6136;47.032;15.398;2023-04-06T00:40:21;97790.47;;;-0.74;73.81
12146;BME280;6136;47.032;15.398;2023-04-06T00:42:51;97786.94;;;-0.68;73.14
12146;BME280;6136;47.032;15.398;2023-04-06T00:45:19;97789.66;;;-0.76;72.10
12146;BME280;6136;47.032;15.398;2023-04-06T00:47:48;97784.59;;;-0.88;73.75
12146;BME280;6136;47.032;15.398;2023-04-06T00:50:16;97785.44;;;-0.85;74.89
12146;BME280;6136;47.032;15.398;2023-04-06T00:52:45;97782.66;;;-0.74;74.25
12146;BME280;6136;47.032;15.398;2023-04-06T00:55:13;97780.97;;;-0.76;73.72
12146;BME280;6136;47.032;15.398;2023-04-06T00:57:42;97788.03;;;-0.86;73.66
12146;BME280;6136;47.032;15.398;2023-04-06T01:00:14;97783.69;;;-0.84;74.71
12146;BME280;6136;47.032;15.398;2023-04-06T01:02:44;97789.66;;;-0.76;74.66
12146;BME280;6136;47.032;15.398;2023-04-06T01:05:17;97781.84;;;-0.77;73.58
12146;BME280;6136;47.032;15.398;2023-04-06T01:07:50;97793.13;;;-0.79;73.51
12146;BME280;6136;47.032;15.398;2023-04-06T01:10:23;97782.81;;;-0.83;73.17
12146;BME280;6136;47.032;15.398;2023-04-06T01:12:56;97793.16;;;-0.80;74.11
12146;BME280;6136;47.032;15.398;2023-04-06T01:15:43;97769.06;;;-0.91;73.83
12146;BME280;6136;47.032;15.398;2023-04-06T01:18:15;97784.66;;;-0.93;74.25
12146;BME280;6136;47.032;15.398;2023-04-06T01:20:54;97790.13;;;-1.12;74.38
12146;BME280;6136;47.032;15.398;2023-04-06T01:23:26;97791.09;;;-1.20;75.42
12146;BME280;6136;47.032;15.398;2023-04-06T01:25:55;97781.66;;;-1.28;74.96
12146;BME280;6136;47.032;15.398;2023-04-06T01:28:24;97779.91;;;-1.26;74.42
12146;BME280;6136;47.032;15.398;2023-04-06T01:31:03;97784.28;;;-1.30;75.49
12146;BME280;6136;47.032;15.398;2023-04-06T01:33:43;97779.94;;;-1.31;75.40
12146;BME280;6136;47.032;15.398;2023-04-06T01:36:15;97776.50;;;-1.33;75.82
12146;BME280;6136;47.032;15.398;2023-04-06T01:38:51;97779.16;;;-1.34;76.17
12146;BME280;6136;47.032;15.398;2023-04-06T01:41:23;97768.69;;;-1.31;76.06
12146;BME280;6136;47.032;15.398;2023-04-06T01:43:52;97773.16;;;-1.41;76.25
12146;BME280;6136;47.032;15.398;2023-04-06T01:46:25;97769.59;;;-1.34;76.49
12146;BME280;6136;47.032;15.398;2023-04-06T01:48:54;97773.03;;;-1.32;76.68
12146;BME280;6136;47.032;15.398;2023-04-06T01:51:41;97771.19;;;-1.21;77.00
12146;BME280;6136;47.032;15.398;2023-04-06T01:54:13;97778.16;;;-1.26;77.48
12146;BME280;6136;47.032;15.398;2023-04-06T01:56:52;97767.78;;;-1.27;77.13
12146;BME280;6136;47.032;15.398;2023-04-06T01:59:43;97777.34;;;-1.29;78.39
12146;BME280;6136;47.032;15.398;2023-04-06T02:02:25;97782.56;;;-1.31;79.25
12146;BME280;6136;47.032;15.398;2023-04-06T02:05:04;97778.28;;;-1.35;78.73
12146;BME280;6136;47.032;15.398;2023-04-06T02:07:33;97770.69;;;-1.51;77.80
12146;BME280;6136;47.032;15.398;2023-04-06T02:10:04;97771.69;;;-1.63;78.71
12146;BME280;6136;47.032;15.398;2023-04-06T02:12:36;97792.47;;;-1.63;78.17
12146;BME280;6136;47.032;15.398;2023-04-06T02:15:09;97766.66;;;-1.81;77.84
12146;BME280;6136;47.032;15.398;2023-04-06T02:17:37;97776.25;;;-1.86;78.83
12146;BME280;6136;47.032;15.398;2023-04-06T02:20:06;97784.06;;;-1.89;79.46
12146;BME280;6136;47.032;15.398;2023-04-06T02:22:35;97784.06;;;-1.89;79.48
12146;BME280;6136;47.032;15.398;2023-04-06T02:25:05;97778.00;;;-1.91;79.03
12146;BME280;6136;47.032;15.398;2023-04-06T02:27:33;97759.09;;;-2.04;79.45
12146;BME280;6136;47.032;15.398;2023-04-06T02:30:02;97757.38;;;-2.02;79.56
12146;BME280;6136;47.032;15.398;2023-04-06T02:32:31;97763.34;;;-1.96;78.92
12146;BME280;6136;47.032;15.398;2023-04-06T02:34:59;97771.88;;;-1.81;78.28
12146;BME280;6136;47.032;15.398;2023-04-06T02:37:29;97766.75;;;-1.87;78.82
12146;BME280;6136;47.032;15.398;2023-04-06T02:39:58;97776.19;;;-1.82;79.74
12146;BME280;6136;47.032;15.398;2023-04-06T02:42:30;97773.53;;;-1.77;79.12
12146;BME280;6136;47.032;15.398;2023-04-06T02:44:59;97757.94;;;-1.76;78.34
12146;BME280;6136;47.032;15.398;2023-04-06T02:47:32;97769.19;;;-1.72;79.29
12146;BME280;6136;47.032;15.398;2023-04-06T02:50:01;97772.50;;;-1.63;78.23
12146;BME280;6136;47.032;15.398;2023-04-06T02:52:31;97752.75;;;-1.77;78.79
12146;BME280;6136;47.032;15.398;2023-04-06T02:55:00;97760.44;;;-1.64;79.39
12146;BME280;6136;47.032;15.398;2023-04-06T02:57:31;97762.19;;;-1.70;78.81
12146;BME280;6136;47.032;15.398;2023-04-06T02:59:59;97752.88;;;-1.86;78.63
12146;BME280;6136;47.032;15.398;2023-04-06T03:02:36;97744.38;;;-2.01;78.83
12146;BME280;6136;47.032;15.398;2023-04-06T03:05:08;97756.41;;;-1.93;79.83
12146;BME280;6136;47.032;15.398;2023-04-06T03:07:41;97748.72;;;-2.04;79.42
12146;BME280;6136;47.032;15.398;2023-04-06T03:10:16;97758.94;;;-1.86;79.32
12146;BME280;6136;47.032;15.398;2023-04-06T03:12:48;97751.19;;;-1.90;79.77
12146;BME280;6136;47.032;15.398;2023-04-06T03:15:21;97751.22;;;-1.93;80.57
12146;BME280;6136;47.032;15.398;2023-04-06T03:17:54;97757.22;;;-1.87;80.06
12146;BME280;6136;47.032;15.398;2023-04-06T03:20:37;97759.91;;;-1.98;80.81
12146;BME280;6136;47.032;15.398;2023-04-06T03:23:05;97754.72;;;-1.98;80.19
12146;BME280;6136;47.032;15.398;2023-04-06T03:25:38;97753.13;;;-2.11;80.56
12146;BME280;6136;47.032;15.398;2023-04-06T03:28:11;97753.91;;;-2.01;80.26
12146;BME280;6136;47.032;15.398;2023-04-06T03:30:48;97761.72;;;-2.06;80.90
12146;BME280;6136;47.032;15.398;2023-04-06T03:33:23;97763.56;;;-2.15;80.77
12146;BME280;6136;47.032;15.398;2023-04-06T03:35:54;97759.97;;;-2.07;82.10
12146;BME280;6136;47.032;15.398;2023-04-06T03:38:25;97763.50;;;-2.11;81.40
12146;BME280;6136;47.032;15.398;2023-04-06T03:40:54;97770.56;;;-2.25;82.16
12146;BME280;6136;47.032;15.398;2023-04-06T03:43:27;97753.31;;;-2.33;82.37
12146;BME280;6136;47.032;15.398;2023-04-06T03:45:55;97755.03;;;-2.31;82.54
12146;BME280;6136;47.032;15.398;2023-04-06T03:48:24;97752.47;;;-2.36;83.07
12146;BME280;6136;47.032;15.398;2023-04-06T03:50:52;97762.81;;;-2.31;83.87
12146;BME280;6136;47.032;15.398;2023-04-06T03:53:20;97761.16;;;-2.41;82.99
12146;BME280;6136;47.032;15.398;2023-04-06T03:55:52;97747.44;;;-2.54;82.77
12146;BME280;6136;47.032;15.398;2023-04-06T03:58:21;97756.03;;;-2.47;84.01
12146;BME280;6136;47.032;15.398;2023-04-06T04:00:53;97769.75;;;-2.31;83.37
12146;BME280;6136;47.032;15.398;2023-04-06T04:03:21;97774.94;;;-2.33;82.51
12146;BME280;6136;47.032;15.398;2023-04-06T04:05:50;97776.75;;;-2.43;83.56
12146;BME280;6136;47.032;15.398;2023-04-06T04:08:19;97779.28;;;-2.37;83.93
12146;BME280;6136;47.032;15.398;2023-04-06T04:10:47;97772.34;;;-2.36;83.69
12146;BME280;6136;47.032;15.398;2023-04-06T04:13:15;97767.19;;;-2.38;84.54
12146;BME280;6136;47.032;15.398;2023-04-06T04:15:46;97768.94;;;-2.38;83.42
12146;BME280;6136;47.032;15.398;2023-04-06T04:18:16;97775.00;;;-2.42;84.80
12146;BME280;6136;47.032;15.398;2023-04-06T04:20:46;97771.59;;;-2.47;84.68
12146;BME280;6136;47.032;15.398;2023-04-06T04:23:14;97781.94;;;-2.43;83.92
12146;BME280;6136;47.032;15.398;2023-04-06T04:25:43;97764.72;;;-2.53;83.93
12146;BME280;6136;47.032;15.398;2023-04-06T04:28:12;97781.09;;;-2.46;84.49
12146;BME280;6136;47.032;15.398;2023-04-06T04:30:41;97787.97;;;-2.44;84.45
12146;BME280;6136;47.032;15.398;2023-04-06T04:33:11;97786.34;;;-2.55;84.25
12146;BME280;6136;47.032;15.398;2023-04-06T04:35:42;97792.41;;;-2.56;84.46
12146;BME280;6136;47.032;15.398;2023-04-06T04:38:14;97807.19;;;-2.67;85.09
12146;BME280;6136;47.032;15.398;2023-04-06T04:40:47;97805.47;;;-2.71;84.66
12146;BME280;6136;47.032;15.398;2023-04-06T04:43:19;97788.28;;;-2.88;84.52
12146;BME280;6136;47.032;15.398;2023-04-06T04:45:48;97797.78;;;-2.87;85.10
12146;BME280;6136;47.032;15.398;2023-04-06T04:48:35;97802.97;;;-2.85;84.87
12146;BME280;6136;47.032;15.398;2023-04-06T04:51:07;97801.25;;;-2.86;85.06
12146;BME280;6136;47.032;15.398;2023-04-06T04:54:02;97799.47;;;-2.81;84.74
12146;BME280;6136;47.032;15.398;2023-04-06T04:56:32;97799.47;;;-2.78;84.78
12146;BME280;6136;47.032;15.398;2023-04-06T04:59:13;97792.56;;;-2.78;84.88
12146;BME280;6136;47.032;15.398;2023-04-06T05:01:49;97785.56;;;-2.66;85.18
12146;BME280;6136;47.032;15.398;2023-04-06T05:04:27;97792.41;;;-2.53;84.38
12146;BME280;6136;47.032;15.398;2023-04-06T05:07:05;97780.28;;;-2.54;85.29
12146;BME280;6136;47.032;15.398;2023-04-06T05:09:35;97790.56;;;-2.44;84.20
12146;BME280;6136;47.032;15.398;2023-04-06T05:12:04;97793.97;;;-2.36;83.25
12146;BME280;6136;47.032;15.398;2023-04-06T05:14:39;97793.91;;;-2.25;84.03
12146;BME280;6136;47.032;15.398;2023-04-06T05:17:13;97792.13;;;-2.18;84.45
12146;BME280;6136;47.032;15.398;2023-04-06T05:19:41;97798.91;;;-2.05;84.37
12146;BME280;6136;47.032;15.398;2023-04-06T05:22:13;97785.88;;;-1.99;83.22
12146;BME280;6136;47.032;15.398;2023-04-06T05:24:49;97793.50;;;-1.82;83.44
12146;BME280;6136;47.032;15.398;2023-04-06T05:27:17;97805.50;;;-1.68;83.83
12146;BME280;6136;47.032;15.398;2023-04-06T05:29:46;97792.41;;;-1.60;82.68
12146;BME280;6136;47.032;15.398;2023-04-06T05:32:15;97799.25;;;-1.48;81.94
12146;BME280;6136;47.032;15.398;2023-04-06T05:34:44;97798.16;;;-1.32;81.70
12146;BME280;6136;47.032;15.398;2023-04-06T05:37:14;97791.97;;;-1.21;81.16
12146;BME280;6136;47.032;15.398;2023-04-06T05:39:42;97790.00;;;-1.03;80.64
12146;BME280;6136;47.032;15.398;2023-04-06T05:42:11;97788.09;;;-0.89;79.93
12146;BME280;6136;47.032;15.398;2023-04-06T05:44:50;97789.53;;;-0.67;78.31
12146;BME280;6136;47.032;15.398;2023-04-06T05:47:19;97779.69;;;-0.50;77.11
12146;BME280;6136;47.032;15.398;2023-04-06T05:49:55;97780.31;;;-0.32;75.67
12146;BME280;6136;47.032;15.398;2023-04-06T05:52:33;97775.88;;;-0.27;75.75
12146;BME280;6136;47.032;15.398;2023-04-06T05:55:02;97780.00;;;-0.14;75.19
12146;BME280;6136;47.032;15.398;2023-04-06T05:57:31;97778.72;;;0.10;73.95
12146;BME280;6136;47.032;15.398;2023-04-06T05:59:59;97777.59;;;0.24;73.43
12146;BME280;6136;47.032;15.398;2023-04-06T06:02:38;97780.75;;;0.42;72.82
12146;BME280;6136;47.032;15.398;2023-04-06T06:05:10;97775.88;;;0.69;72.93
12146;BME280;6136;47.032;15.398;2023-04-06T06:07:42;97774.53;;;0.93;70.45
12146;BME280;6136;47.032;15.398;2023-04-06T06:10:11;97776.63;;;1.17;69.37
12146;BME280;6136;47.032;15.398;2023-04-06T06:12:39;97777.09;;;1.35;67.45
12146;BME280;6136;47.032;15.398;2023-04-06T06:15:08;97774.91;;;1.55;66.88
12146;BME280;6136;47.032;15.398;2023-04-06T06:17:41;97779.63;;;1.76;67.00
12146;BME280;6136;47.032;15.398;2023-04-06T06:20:11;97774.88;;;1.92;66.13
12146;BME280;6136;47.032;15.398;2023-04-06T06:22:39;97777.22;;;2.03;64.51
12146;BME280;6136;47.032;15.398;2023-04-06T06:25:14;97788.94;;;2.22;64.39
12146;BME280;6136;47.032;15.398;2023-04-06T06:27:45;97774.41;;;2.44;62.93
12146;BME280;6136;47.032;15.398;2023-04-06T06:30:16;97776.44;;;2.65;63.35
12146;BME280;6136;47.032;15.398;2023-04-06T06:32:49;97779.28;;;2.89;61.25
12146;BME280;6136;47.032;15.398;2023-04-06T06:35:18;97771.25;;;2.95;60.84
12146;BME280;6136;47.032;15.398;2023-04-06T06:37:47;97768.72;;;3.21;60.41
12146;BME280;6136;47.032;15.398;2023-04-06T06:40:21;97765.00;;;3.28;60.03
12146;BME280;6136;47.032;15.398;2023-04-06T06:42:52;97771.69;;;3.38;59.84
12146;BME280;6136;47.032;15.398;2023-04-06T06:45:28;97766.34;;;3.41;60.57
12146;BME280;6136;47.032;15.398;2023-04-06T06:47:57;97759.84;;;3.81;61.25
12146;BME280;6136;47.032;15.398;2023-04-06T06:50:26;97762.28;;;4.13;57.97
12146;BME280;6136;47.032;15.398;2023-04-06T06:52:55;97760.06;;;4.27;56.28
12146;BME280;6136;47.032;15.398;2023-04-06T06:55:24;97762.75;;;4.51;56.15
12146;BME280;6136;47.032;15.398;2023-04-06T06:57:53;97763.78;;;4.70;57.68
12146;BME280;6136;47.032;15.398;2023-04-06T07:00:22;97755.41;;;4.84;56.27
12146;BME280;6136;47.032;15.398;2023-04-06T07:02:52;97757.19;;;5.06;53.99
12146;BME280;6136;47.032;15.398;2023-04-06T07:05:20;97757.81;;;5.36;53.55
12146;BME280;6136;47.032;15.398;2023-04-06T07:07:56;97760.03;;;5.47;53.36
12146;BME280;6136;47.032;15.398;2023-04-06T07:10:26;97759.28;;;5.87;51.72
12146;BME280;6136;47.032;15.398;2023-04-06T07:12:55;97745.63;;;6.01;49.90
12146;BME280;6136;47.032;15.398;2023-04-06T07:15:23;97754.75;;;6.14;49.88
12146;BME280;6136;47.032;15.398;2023-04-06T07:17:51;97755.59;;;6.55;50.09
12146;BME280;6136;47.032;15.398;2023-04-06T07:20:22;97751.41;;;7.10;49.20
12146;BME280;6136;47.032;15.398;2023-04-06T07:22:50;97747.25;;;7.61;48.47
12146;BME280;6136;47.032;15.398;2023-04-06T07:25:18;97740.66;;;9.09;44.10
12146;BME280;6136;47.032;15.398;2023-04-06T07:27:52;97739.53;;;9.61;42.87
12146;BME280;6136;47.032;15.398;2023-04-06T07:30:22;97738.63;;;10.54;42.49
12146;BME280;6136;47.032;15.398;2023-04-06T07:32:52;97734.47;;;12.31;37.79
12146;BME280;6136;47.032;15.398;2023-04-06T07:35:23;97726.63;;;13.19;35.20
12146;BME280;6136;47.032;15.398;2023-04-06T07:37:53;97730.88;;;13.09;35.30
12146;BME280;6136;47.032;15.398;2023-04-06T07:40:23;97736.50;;;13.92;34.13
12146;BME280;6136;47.032;15.398;2023-04-06T07:42:55;97724.59;;;14.32;32.91
12146;BME280;6136;47.032;15.398;2023-04-06T07:45:24;97734.38;;;14.91;31.25
12146;BME280;6136;47.032;15.398;2023-04-06T07:47:54;97718.66;;;15.99;29.64
12146;BME280;6136;47.032;15.398;2023-04-06T07:50:24;97715.16;;;15.65;29.54
12146;BME280;6136;47.032;15.398;2023-04-06T07:52:53;97715.56;;;16.15;28.48
12146;BME280;6136;47.032;15.398;2023-04-06T07:55:22;97714.63;;;16.68;28.31
12146;BME280;6136;47.032;15.398;2023-04-06T07:57:50;97706.41;;;16.60;27.62
12146;BME280;6136;47.032;15.398;2023-04-06T08:00:21;97708.84;;;16.63;26.90
12146;BME280;6136;47.032;15.398;2023-04-06T08:02:49;97698.84;;;17.68;25.50
12146;BME280;6136;47.032;15.398;2023-04-06T08:05:18;97694.34;;;16.34;26.94
12146;BME280;6136;47.032;15.398;2023-04-06T08:07:48;97694.31;;;16.02;27.17
12146;BME280;6136;47.032;15.398;2023-04-06T08:10:16;97694.19;;;16.67;26.22
12146;BME280;6136;47.032;15.398;2023-04-06T08:12:45;97692.94;;;17.13;26.88
12146;BME280;6136;47.032;15.398;2023-04-06T08:15:14;97687.41;;;17.66;25.12
12146;BME280;6136;47.032;15.398;2023-04-06T08:17:46;97673.31;;;17.33;25.88
12146;BME280;6136;47.032;15.398;2023-04-06T08:20:14;97686.59;;;17.75;26.51
12146;BME280;6136;47.032;15.398;2023-04-06T08:22:43;97678.34;;;18.55;25.40
12146;BME280;6136;47.032;15.398;2023-04-06T08:25:11;97673.06;;;17.86;25.34
12146;BME280;6136;47.032;15.398;2023-04-06T08:27:40;97677.34;;;18.94;23.27
12146;BME280;6136;47.032;15.398;2023-04-06T08:30:12;97657.94;;;20.02;21.89
12146;BME280;6136;47.032;15.398;2023-04-06T08:32:42;97672.47;;;20.09;21.45
12146;BME280;6136;47.032;15.398;2023-04-06T08:35:12;97662.88;;;19.61;22.54
12146;BME280;6136;47.032;15.398;2023-04-06T08:37:40;97653.25;;;21.94;20.99
12146;BME280;6136;47.032;15.398;2023-04-06T08:40:09;97646.72;;;21.97;20.49
12146;BME280;6136;47.032;15.398;2023-04-06T08:42:40;97654.28;;;21.00;21.26
12146;BME280;6136;47.032;15.398;2023-04-06T08:45:09;97644.09;;;19.97;21.20
12146;BME280;6136;47.032;15.398;2023-04-06T08:47:38;97643.19;;;20.24;22.76
12146;BME280;6136;47.032;15.398;2023-04-06T08:50:08;97642.72;;;20.10;22.24
12146;BME280;6136;47.032;15.398;2023-04-06T08:52:40;97637.59;;;19.72;21.90
12146;BME280;6136;47.032;15.398;2023-04-06T08:55:10;97635.66;;;19.64;22.58
12146;BME280;6136;47.032;15.398;2023-04-06T08:57:39;97630.78;;;19.50;22.30
12146;BME280;6136;47.032;15.398;2023-04-06T09:00:10;97624.28;;;19.43;21.07
12146;BME280;6136;47.032;15.398;2023-04-06T09:02:39;97617.63;;;20.81;21.16
12146;BME280;6136;47.032;15.398;2023-04-06T09:05:08;97622.50;;;20.24;21.91
12146;BME280;6136;47.032;15.398;2023-04-06T09:07:39;97625.75;;;20.63;22.82
12146;BME280;6136;47.032;15.398;2023-04-06T09:10:08;97618.28;;;20.04;22.57
12146;BME280;6136;47.032;15.398;2023-04-06T09:12:36;97607.81;;;20.19;22.68
12146;BME280;6136;47.032;15.398;2023-04-06T09:15:06;97607.44;;;20.31;22.56
12146;BME280;6136;47.032;15.398;2023-04-06T09:17:34;97609.06;;;20.85;21.66
12146;BME280;6136;47.032;15.398;2023-04-06T09:20:04;97591.72;;;20.36;20.30
12146;BME280;6136;47.032;15.398;2023-04-06T09:22:36;97590.56;;;20.65;21.02
12146;BME280;6136;47.032;15.398;2023-04-06T09:25:08;97602.13;;;20.83;21.25
12146;BME280;6136;47.032;15.398;2023-04-06T09:27:37;97582.31;;;21.52;21.32
12146;BME280;6136;47.032;15.398;2023-04-06T09:30:07;97588.44;;;21.70;20.77
12146;BME280;6136;47.032;15.398;2023-04-06T09:32:48;97585.63;;;21.04;20.79
12146;BME280;6136;47.032;15.398;2023-04-06T09:35:17;97581.88;;;20.71;21.23
12146;BME280;6136;47.032;15.398;2023-04-06T09:37:47;97582.38;;;20.48;20.43
12146;BME280;6136;47.032;15.398;2023-04-06T09:40:17;97578.28;;;21.56;19.16
12146;BME280;6136;47.032;15.398;2023-04-06T09:42:47;97569.53;;;21.62;20.27
12146;BME280;6136;47.032;15.398;2023-04-06T09:45:17;97558.34;;;21.41;19.79
12146;BME280;6136;47.032;15.398;2023-04-06T09:47:45;97571.28;;;21.03;20.79
12146;BME280;6136;47.032;15.398;2023-04-06T09:50:14;97557.69;;;20.79;20.60
12146;BME280;6136;47.032;15.398;2023-04-06T09:52:46;97566.19;;;21.18;20.36
12146;BME280;6136;47.032;15.398;2023-04-06T09:55:22;97552.78;;;20.13;20.47
12146;BME280;6136;47.032;15.398;2023-04-06T09:57:57;97548.63;;;20.01;21.35
12146;BME280;6136;47.032;15.398;2023-04-06T10:00:26;97556.81;;;21.04;22.09
12146;BME280;6136;47.032;15.398;2023-04-06T10:03:00;97553.81;;;21.15;20.78
12146;BME280;6136;47.032;15.398;2023-04-06T10:05:37;97545.66;;;21.91;20.39
12146;BME280;6136;47.032;15.398;2023-04-06T10:08:11;97545.53;;;21.43;20.63
12146;BME280;6136;47.032;15.398;2023-04-06T10:10:41;97527.69;;;20.74;21.13
12146;BME280;6136;47.032;15.398;2023-04-06T10:13:11;97539.16;;;21.52;20.97
12146;BME280;6136;47.032;15.398;2023-04-06T10:15:39;97534.09;;;21.57;21.39
12146;BME280;6136;47.032;15.398;2023-04-06T10:18:08;97538.09;;;21.37;21.36
12146;BME280;6136;47.032;15.398;2023-04-06T10:20:41;97522.22;;;20.91;21.91
12146;BME280;6136;47.032;15.398;2023-04-06T10:23:13;97524.00;;;21.59;20.83
12146;BME280;6136;47.032;15.398;2023-04-06T10:25:53;97506.06;;;22.00;20.31
12146;BME280;6136;47.032;15.398;2023-04-06T10:28:23;97517.81;;;21.16;21.33
12146;BME280;6136;47.032;15.398;2023-04-06T10:30:57;97519.94;;;21.13;22.03
12146;BME280;6136;47.032;15.398;2023-04-06T10:33:26;97512.59;;;20.81;21.73
12146;BME280;6136;47.032;15.398;2023-04-06T10:35:54;97514.03;;;21.51;21.41
12146;BME280;6136;47.032;15.398;2023-04-06T10:38:33;97514.66;;;22.36;20.92
12146;BME280;6136;47.032;15.398;2023-04-06T10:41:09;97508.59;;;23.05;19.36
12146;BME280;6136;47.032;15.398;2023-04-06T10:43:39;97512.72;;;22.69;19.14
12146;BME280;6136;47.032;15.398;2023-04-06T10:46:09;97497.16;;;22.95;17.01
12146;BME280;6136;47.032;15.398;2023-04-06T10:48:39;97496.03;;;23.59;19.48
12146;BME280;6136;47.032;15.398;2023-04-06T10:51:08;97492.72;;;23.72;18.41
12146;BME280;6136;47.032;15.398;2023-04-06T10:53:37;97492.44;;;23.28;18.64
12146;BME280;6136;47.032;15.398;2023-04-06T10:56:10;97489.38;;;23.00;20.00
12146;BME280;6136;47.032;15.398;2023-04-06T10:58:44;97479.41;;;23.71;18.06
12146;BME280;6136;47.032;15.398;2023-04-06T11:01:14;97488.94;;;22.80;19.73
12146;BME280;6136;47.032;15.398;2023-04-06T11:03:43;97485.56;;;22.78;18.85
12146;BME280;6136;47.032;15.398;2023-04-06T11:06:18;97481.88;;;21.66;19.32
12146;BME280;6136;47.032;15.398;2023-04-06T11:08:48;97463.69;;;22.33;18.99
12146;BME280;6136;47.032;15.398;2023-04-06T11:11:19;97469.09;;;22.33;19.80
12146;BME280;6136;47.032;15.398;2023-04-06T11:13:50;97479.13;;;22.71;19.13
12146;BME280;6136;47.032;15.398;2023-04-06T11:16:20;97476.69;;;23.01;18.15
12146;BME280;6136;47.032;15.398;2023-04-06T11:18:50;97474.88;;;23.32;18.44
12146;BME280;6136;47.032;15.398;2023-04-06T11:21:20;97457.88;;;23.46;18.88
12146;BME280;6136;47.032;15.398;2023-04-06T11:23:48;97455.25;;;22.99;17.75
12146;BME280;6136;47.032;15.398;2023-04-06T11:26:18;97459.28;;;22.48;19.63
12146;BME280;6136;47.032;15.398;2023-04-06T11:28:47;97443.25;;;23.64;17.02
12146;BME280;6136;47.032;15.398;2023-04-06T11:31:15;97452.44;;;22.68;17.91
12146;BME280;6136;47.032;15.398;2023-04-06T11:33:46;97444.16;;;22.86;18.16
12146;BME280;6136;47.032;15.398;2023-04-06T11:36:15;97443.44;;;24.60;18.30
12146;BME280;6136;47.032;15.398;2023-04-06T11:38:43;97435.84;;;24.70;17.06
12146;BME280;6136;47.032;15.398;2023-04-06T11:41:11;97429.09;;;22.92;19.04
12146;BME280;6136;47.032;15.398;2023-04-06T11:43:47;97436.59;;;24.12;19.61
12146;BME280;6136;47.032;15.398;2023-04-06T11:46:17;97426.53;;;22.98;18.63
12146;BME280;6136;47.032;15.398;2023-04-06T11:48:46;97420.78;;;23.32;19.55
12146;BME280;6136;47.032;15.398;2023-04-06T11:51:21;97430.13;;;23.98;17.80
12146;BME280;6136;47.032;15.398;2023-04-06T11:53:50;97423.94;;;24.27;19.69
12146;BME280;6136;47.032;15.398;2023-04-06T11:56:26;97414.56;;;25.68;16.06
12146;BME280;6136;47.032;15.398;2023-04-06T11:58:56;97413.81;;;26.02;16.81
12146;BME280;6136;47.032;15.398;2023-04-06T12:01:26;97408.31;;;25.53;16.34
12146;BME280;6136;47.032;15.398;2023-04-06T12:03:55;97408.19;;;23.93;19.87
12146;BME280;6136;47.032;15.398;2023-04-06T12:06:23;97399.97;;;25.97;17.75
12146;BME280;6136;47.032;15.398;2023-04-06T12:08:53;97405.34;;;26.67;16.59
12146;BME280;6136;47.032;15.398;2023-04-06T12:11:21;97404.03;;;26.63;16.34
12146;BME280;6136;47.032;15.398;2023-04-06T12:13:50;97403.31;;;25.71;16.22
12146;BME280;6136;47.032;15.398;2023-04-06T12:16:19;97401.16;;;25.67;17.64
12146;BME280;6136;47.032;15.398;2023-04-06T12:18:48;97396.13;;;24.62;17.57
12146;BME280;6136;47.032;15.398;2023-04-06T12:21:16;97396.91;;;24.19;17.54
12146;BME280;6136;47.032;15.398;2023-04-06T12:23:44;97398.44;;;22.60;17.74
12146;BME280;6136;47.032;15.398;2023-04-06T12:26:13;97398.09;;;24.02;18.21
12146;BME280;6136;47.032;15.398;2023-04-06T12:28:41;97398.66;;;24.64;18.10
12146;BME280;6136;47.032;15.398;2023-04-06T12:31:14;97388.94;;;25.20;16.93
12146;BME280;6136;47.032;15.398;2023-04-06T12:33:46;97386.41;;;24.24;16.59
12146;BME280;6136;47.032;15.398;2023-04-06T12:36:16;97378.19;;;25.63;17.27
12146;BME280;6136;47.032;15.398;2023-04-06T12:38:47;97389.09;;;24.97;18.30
12146;BME280;6136;47.032;15.398;2023-04-06T12:41:16;97375.28;;;24.63;17.72
12146;BME280;6136;47.032;15.398;2023-04-06T12:43:44;97372.13;;;24.45;16.29
12146;BME280;6136;47.032;15.398;2023-04-06T12:46:13;97377.81;;;24.20;16.51
12146;BME280;6136;47.032;15.398;2023-04-06T12:48:41;97373.13;;;23.77;17.67
12146;BME280;6136;47.032;15.398;2023-04-06T12:51:11;97362.16;;;24.30;18.65
12146;BME280;6136;47.032;15.398;2023-04-06T12:53:39;97361.56;;;24.64;16.20
12146;BME280;6136;47.032;15.398;2023-04-06T12:56:12;97371.75;;;24.48;15.48
12146;BME280;6136;47.032;15.398;2023-04-06T12:58:41;97359.13;;;24.25;16.88
12146;BME280;6136;47.032;15.398;2023-04-06T13:01:10;97356.69;;;24.74;17.13
12146;BME280;6136;47.032;15.398;2023-04-06T13:03:40;97360.22;;;24.90;16.56
12146;BME280;6136;47.032;15.398;2023-04-06T13:06:09;97359.25;;;26.94;15.84
12146;BME280;6136;47.032;15.398;2023-04-06T13:08:40;97353.63;;;25.35;17.07
12146;BME280;6136;47.032;15.398;2023-04-06T13:11:09;97355.94;;;24.95;16.71
12146;BME280;6136;47.032;15.398;2023-04-06T13:13:37;97349.66;;;24.80;16.50
12146;BME280;6136;47.032;15.398;2023-04-06T13:16:07;97348.09;;;25.64;16.66
12146;BME280;6136;47.032;15.398;2023-04-06T13:18:36;97350.03;;;25.28;16.28
12146;BME280;6136;47.032;15.398;2023-04-06T13:21:06;97360.25;;;24.60;16.08